createdAt,value
2022-11-20T00:01:28.727Z,11.53
2022-11-20T00:03:58.899Z,11.10
2022-11-20T00:06:27.471Z,12.07
2022-11-20T00:09:01.294Z,12.10
2022-11-20T00:11:30.260Z,11.03
2022-11-20T00:14:00.337Z,11.40
2022-11-20T00:16:29.269Z,10.47
2022-11-20T00:18:56.291Z,10.13
2022-11-20T00:21:25.368Z,9.90
2022-11-20T00:23:55.279Z,9.80
2022-11-20T00:26:24.205Z,10.53
2022-11-20T00:29:04.110Z,10.63
2022-11-20T00:31:32.061Z,9.60
2022-11-20T00:33:58.952Z,9.83
2022-11-20T00:36:28.132Z,9.23
2022-11-20T00:38:58.037Z,9.60
2022-11-20T00:41:25.965Z,10.00
2022-11-20T00:43:54.444Z,10.03
2022-11-20T00:46:23.622Z,10.70
2022-11-20T00:48:50.963Z,10.17
2022-11-20T00:51:20.257Z,9.10
2022-11-20T00:53:47.911Z,10.37
2022-11-20T00:56:18.437Z,9.73
2022-11-20T00:58:47.990Z,9.33
2022-11-20T01:01:14.943Z,9.10
2022-11-20T01:03:44.450Z,10.40
2022-11-20T01:06:14.556Z,9.70
2022-11-20T01:08:41.577Z,9.17
2022-11-20T01:11:14.524Z,8.83
2022-11-20T01:13:42.765Z,9.47
2022-11-20T01:16:15.811Z,9.67
2022-11-20T01:18:45.389Z,9.20
2022-11-20T01:21:15.711Z,9.23
2022-11-20T01:23:43.984Z,9.13
2022-11-20T01:26:32.760Z,9.67
2022-11-20T01:29:00.592Z,8.73
2022-11-20T01:31:30.774Z,9.00
2022-11-20T01:34:00.049Z,9.40
2022-11-20T01:36:29.903Z,8.63
2022-11-20T01:38:59.944Z,9.07
2022-11-20T01:41:47.157Z,9.17
2022-11-20T01:44:20.030Z,8.73
2022-11-20T01:47:03.229Z,8.00
2022-11-20T01:49:42.154Z,8.87
2022-11-20T01:52:16.252Z,8.83
2022-11-20T01:54:49.513Z,7.87
2022-11-20T01:57:18.287Z,8.57
2022-11-20T01:59:53.826Z,9.20
2022-11-20T02:02:21.912Z,9.50
2022-11-20T02:04:52.771Z,8.83
2022-11-20T02:07:21.083Z,9.10
2022-11-20T02:09:48.502Z,8.63
2022-11-20T02:12:35.748Z,9.80
2022-11-20T02:15:26.294Z,8.70
2022-11-20T02:17:57.186Z,8.40
2022-11-20T02:20:24.099Z,9.07
2022-11-20T02:23:22.929Z,8.10
2022-11-20T02:25:50.810Z,8.47
2022-11-20T02:28:19.326Z,7.93
2022-11-20T02:30:46.246Z,8.47
2022-11-20T02:33:14.034Z,8.57
2022-11-20T02:35:43.751Z,9.27
2022-11-20T02:38:11.063Z,7.97
2022-11-20T02:40:37.927Z,7.83
2022-11-20T02:43:04.886Z,7.63
2022-11-20T02:45:32.621Z,8.07
2022-11-20T02:47:59.682Z,7.40
2022-11-20T02:50:26.616Z,8.43
2022-11-20T02:52:53.736Z,7.60
2022-11-20T02:55:20.687Z,8.47
2022-11-20T02:57:47.590Z,8.30
2022-11-20T03:00:15.182Z,8.37
2022-11-20T03:02:42.140Z,7.97
2022-11-20T03:05:09.441Z,7.10
2022-11-20T03:07:36.366Z,8.53
2022-11-20T03:10:04.250Z,7.93
2022-11-20T03:12:31.246Z,8.47
2022-11-20T03:14:58.160Z,8.17
2022-11-20T03:17:25.140Z,8.43
2022-11-20T03:19:52.034Z,7.83
2022-11-20T03:22:19.104Z,8.33
2022-11-20T03:24:46.010Z,8.47
2022-11-20T03:27:13.006Z,7.93
2022-11-20T03:29:39.934Z,7.73
2022-11-20T03:32:06.884Z,7.60
2022-11-20T03:34:33.900Z,8.33
2022-11-20T03:37:00.794Z,7.70
2022-11-20T03:39:27.706Z,7.57
2022-11-20T03:41:54.662Z,7.93
2022-11-20T03:44:22.826Z,7.70
2022-11-20T03:46:49.764Z,7.63
2022-11-20T03:49:16.766Z,8.50
2022-11-20T03:51:43.724Z,6.73
2022-11-20T03:54:10.683Z,8.00
2022-11-20T03:56:40.163Z,8.33
2022-11-20T03:59:08.075Z,8.07
2022-11-20T04:01:38.548Z,8.40
2022-11-20T04:04:06.059Z,8.40
2022-11-20T04:06:38.524Z,7.47
2022-11-20T04:09:06.705Z,7.50
2022-11-20T04:11:35.997Z,8.30
2022-11-20T04:14:06.951Z,8.03
2022-11-20T04:16:36.824Z,8.20
2022-11-20T04:19:11.143Z,8.00
2022-11-20T04:21:38.588Z,8.70
2022-11-20T04:24:05.846Z,7.60
2022-11-20T04:26:33.158Z,8.40
2022-11-20T04:29:01.604Z,8.47
2022-11-20T04:31:31.525Z,8.10
2022-11-20T04:34:04.687Z,8.37
2022-11-20T04:36:32.782Z,8.30
2022-11-20T04:39:02.562Z,8.43
2022-11-20T04:41:32.442Z,8.23
2022-11-20T04:44:04.129Z,8.37
2022-11-20T04:46:33.130Z,8.47
2022-11-20T04:49:00.573Z,7.87
2022-11-20T04:51:28.446Z,8.67
2022-11-20T04:53:55.791Z,8.33
2022-11-20T04:56:22.775Z,8.47
2022-11-20T04:58:49.991Z,9.13
2022-11-20T05:01:24.866Z,9.10
2022-11-20T05:03:52.408Z,8.60
2022-11-20T05:06:21.872Z,9.00
2022-11-20T05:08:49.216Z,8.87
2022-11-20T05:11:21.439Z,9.50
2022-11-20T05:13:49.381Z,8.93
2022-11-20T05:16:19.259Z,9.80
2022-11-20T05:18:46.366Z,9.50
2022-11-20T05:21:14.875Z,9.20
2022-11-20T05:23:42.692Z,9.07
2022-11-20T05:26:14.436Z,9.33
2022-11-20T05:28:41.493Z,9.23
2022-11-20T05:31:10.422Z,9.07
2022-11-20T05:33:37.840Z,8.90
2022-11-20T05:36:05.571Z,9.90
2022-11-20T05:38:33.317Z,9.40
2022-11-20T05:41:11.572Z,8.83
2022-11-20T05:43:40.479Z,9.63
2022-11-20T05:46:09.394Z,9.60
2022-11-20T05:48:38.348Z,9.70
2022-11-20T05:51:07.968Z,10.13
2022-11-20T05:53:36.158Z,9.90
2022-11-20T05:56:06.732Z,10.03
2022-11-20T05:58:34.221Z,10.20
2022-11-20T06:01:09.640Z,9.97
2022-11-20T06:03:36.921Z,9.80
2022-11-20T06:06:05.711Z,9.70
2022-11-20T06:08:33.560Z,11.93
2022-11-20T06:11:05.332Z,9.70
2022-11-20T06:13:32.889Z,10.27
2022-11-20T06:16:00.249Z,11.50
2022-11-20T06:18:29.239Z,10.03
2022-11-20T06:21:15.003Z,19.67
2022-11-20T06:23:42.471Z,9.80
2022-11-20T06:26:12.739Z,10.80
2022-11-20T06:28:39.980Z,10.27
2022-11-20T06:31:08.654Z,9.77
2022-11-20T06:33:35.643Z,10.43
2022-11-20T06:36:08.897Z,10.57
2022-11-20T06:38:37.951Z,10.20
2022-11-20T06:41:06.681Z,11.07
2022-11-20T06:43:33.630Z,10.37
2022-11-20T06:46:00.710Z,11.70
2022-11-20T06:48:29.625Z,10.90
2022-11-20T06:50:57.107Z,10.97
2022-11-20T06:53:24.836Z,11.10
2022-11-20T06:55:52.490Z,11.47
2022-11-20T06:58:19.626Z,10.37
2022-11-20T07:00:46.695Z,11.00
2022-11-20T07:03:14.372Z,10.97
2022-11-20T07:05:41.447Z,10.97
2022-11-20T07:08:09.170Z,10.83
2022-11-20T07:10:36.599Z,11.40
2022-11-20T07:13:03.716Z,11.53
2022-11-20T07:15:31.224Z,12.23
2022-11-20T07:18:01.269Z,11.67
2022-11-20T07:20:28.795Z,11.87
2022-11-20T07:22:57.010Z,11.80
2022-11-20T07:25:25.278Z,11.37
2022-11-20T07:27:52.191Z,11.10
2022-11-20T07:30:19.394Z,11.93
2022-11-20T07:32:52.654Z,11.27
2022-11-20T07:35:20.124Z,10.60
2022-11-20T07:37:48.308Z,12.50
2022-11-20T07:40:15.990Z,12.63
2022-11-20T07:42:53.274Z,11.67
2022-11-20T07:45:21.741Z,12.20
2022-11-20T07:47:49.227Z,11.97
2022-11-20T07:50:16.561Z,11.93
2022-11-20T07:52:43.560Z,12.13
2022-11-20T07:55:11.527Z,12.13
2022-11-20T07:57:40.244Z,12.23
2022-11-20T08:00:11.967Z,13.13
2022-11-20T08:02:42.814Z,11.90
2022-11-20T08:05:10.947Z,12.67
2022-11-20T08:07:39.896Z,13.23
2022-11-20T08:10:08.071Z,12.33
2022-11-20T08:12:53.696Z,12.40
2022-11-20T08:15:20.738Z,11.90
2022-11-20T08:18:08.301Z,13.10
2022-11-20T08:20:36.001Z,13.20
2022-11-20T08:23:06.718Z,13.67
2022-11-20T08:25:38.055Z,13.57
2022-11-20T08:28:19.920Z,13.40
2022-11-20T08:30:48.058Z,14.37
2022-11-20T08:33:15.140Z,13.93
2022-11-20T08:35:42.856Z,13.30
2022-11-20T08:38:10.606Z,13.97
2022-11-20T08:40:37.521Z,15.57
2022-11-20T08:43:04.614Z,13.47
2022-11-20T08:45:34.755Z,12.70
2022-11-20T08:48:05.253Z,13.93
2022-11-20T08:50:33.931Z,14.63
2022-11-20T08:53:07.302Z,13.13
2022-11-20T08:55:36.636Z,14.97
2022-11-20T08:58:07.672Z,14.90
2022-11-20T09:00:35.326Z,15.10
2022-11-20T09:03:02.856Z,16.10
2022-11-20T09:05:30.660Z,13.70
2022-11-20T09:07:58.509Z,16.13
2022-11-20T09:10:25.724Z,15.93
2022-11-20T09:12:53.890Z,14.93
2022-11-20T09:15:20.843Z,15.13
2022-11-20T09:18:06.126Z,16.40
2022-11-20T09:20:33.176Z,17.17
2022-11-20T09:23:00.084Z,16.47
2022-11-20T09:25:27.130Z,19.70
2022-11-20T09:27:58.188Z,20.23
2022-11-20T09:30:25.804Z,20.53
2022-11-20T09:32:52.762Z,19.57
2022-11-20T09:35:19.678Z,18.13
2022-11-20T09:37:46.829Z,15.17
2022-11-20T09:40:23.952Z,17.80
2022-11-20T09:42:58.881Z,16.27
2022-11-20T09:45:32.026Z,15.97
2022-11-20T09:48:04.795Z,16.13
2022-11-20T09:50:48.906Z,16.53
2022-11-20T09:53:36.205Z,15.97
2022-11-20T09:56:05.867Z,15.35
2022-11-20T09:58:40.724Z,15.17
2022-11-20T10:01:15.375Z,15.33
2022-11-20T10:04:04.258Z,15.20
2022-11-20T10:06:34.483Z,16.90
2022-11-20T10:09:13.685Z,17.07
2022-11-20T10:11:57.484Z,16.30
2022-11-20T10:14:36.021Z,15.13
2022-11-20T10:17:11.613Z,17.00
2022-11-20T10:20:15.796Z,15.33
2022-11-20T10:23:06.836Z,15.77
2022-11-20T10:25:42.952Z,15.23
2022-11-20T10:28:31.761Z,16.85
2022-11-20T10:31:04.226Z,15.97
2022-11-20T10:33:57.039Z,14.90
2022-11-20T10:36:29.408Z,15.67
2022-11-20T10:39:15.677Z,14.27
2022-11-20T10:41:43.307Z,14.60
2022-11-20T10:44:40.319Z,14.73
2022-11-20T10:47:14.273Z,14.13
2022-11-20T10:49:43.629Z,13.60
2022-11-20T10:52:30.777Z,13.43
2022-11-20T10:55:37.885Z,13.67
2022-11-20T10:58:20.229Z,12.50
2022-11-20T11:00:47.279Z,12.30
2022-11-20T11:03:29.727Z,13.23
2022-11-20T11:06:07.762Z,13.20
2022-11-20T11:08:39.520Z,12.57
2022-11-20T11:11:29.820Z,12.20
2022-11-20T11:14:14.978Z,12.60
2022-11-20T11:16:52.278Z,10.40
2022-11-20T11:19:19.286Z,10.63
2022-11-20T11:21:55.601Z,10.77
2022-11-20T11:27:17.991Z,10.53
2022-11-20T11:29:46.064Z,10.13
2022-11-20T11:32:22.452Z,10.73
2022-11-20T11:35:20.176Z,10.73
2022-11-20T11:37:49.391Z,21.33
2022-11-20T11:40:25.761Z,11.57
2022-11-20T11:45:28.226Z,11.13
2022-11-20T11:48:02.094Z,11.50
2022-11-20T11:50:30.663Z,11.57
2022-11-20T11:53:17.981Z,11.03
2022-11-20T11:58:28.723Z,10.70
2022-11-20T12:01:18.513Z,9.90
2022-11-20T12:04:02.671Z,11.87
2022-11-20T12:06:32.738Z,10.70
2022-11-20T12:09:05.231Z,10.77
2022-11-20T12:12:02.989Z,9.27
2022-11-20T12:14:39.885Z,10.23
2022-11-20T12:19:36.499Z,11.27
2022-11-20T12:22:31.287Z,11.90
2022-11-20T12:25:19.708Z,11.00
2022-11-20T12:27:58.888Z,11.17
2022-11-20T12:30:26.191Z,11.23
2022-11-20T12:33:44.642Z,10.67
2022-11-20T12:36:51.269Z,11.40
2022-11-20T12:39:37.143Z,11.20
2022-11-20T12:42:32.530Z,11.37
2022-11-20T12:45:26.093Z,10.87
2022-11-20T12:48:17.183Z,11.13
2022-11-20T12:51:15.497Z,10.77
2022-11-20T12:54:01.885Z,11.20
2022-11-20T12:57:06.264Z,11.90
2022-11-20T13:00:00.978Z,11.53
2022-11-20T13:02:35.472Z,10.53
2022-11-20T13:05:19.234Z,11.53
2022-11-20T13:07:48.035Z,11.67
2022-11-20T13:10:32.543Z,11.63
2022-11-20T13:13:18.606Z,10.90
2022-11-20T13:15:51.271Z,9.73
2022-11-20T13:18:19.000Z,10.03
2022-11-20T13:20:47.761Z,10.23
2022-11-20T13:23:26.509Z,10.37
2022-11-20T13:26:23.862Z,11.67
2022-11-20T13:29:12.248Z,9.35
2022-11-20T13:31:44.802Z,11.17
2022-11-20T13:34:24.023Z,10.37
2022-11-20T13:36:54.160Z,10.83
2022-11-20T13:39:30.074Z,11.90
2022-11-20T13:42:03.305Z,11.30
2022-11-20T13:44:40.450Z,10.97
2022-11-20T13:47:27.982Z,10.70
2022-11-20T13:49:58.138Z,11.57
2022-11-20T13:52:51.088Z,10.87
2022-11-20T13:55:45.932Z,11.40
2022-11-20T13:58:51.586Z,10.93
2022-11-20T14:01:33.335Z,10.10
2022-11-20T14:04:07.337Z,10.03
2022-11-20T14:06:43.102Z,11.67
2022-11-20T14:09:34.682Z,12.80
2022-11-20T14:12:04.707Z,11.47
2022-11-20T14:14:35.122Z,11.07
2022-11-20T14:17:19.418Z,11.43
2022-11-20T14:19:51.516Z,10.13
2022-11-20T14:22:27.081Z,10.77
2022-11-20T14:25:15.342Z,10.70
2022-11-20T14:27:56.619Z,10.80
2022-11-20T14:30:45.407Z,11.50
2022-11-20T14:33:18.309Z,11.73
2022-11-20T14:35:50.003Z,10.23
2022-11-20T14:38:26.888Z,11.80
2022-11-20T14:40:55.083Z,10.27
2022-11-20T14:43:40.218Z,11.17
2022-11-20T14:46:12.074Z,11.40
2022-11-20T14:48:43.750Z,11.33
2022-11-20T14:51:14.314Z,11.13
2022-11-20T14:53:42.843Z,12.17
2022-11-20T14:56:10.961Z,10.93
2022-11-20T14:58:41.970Z,10.70
2022-11-20T15:01:15.449Z,11.40
2022-11-20T15:03:47.092Z,11.53
2022-11-20T15:06:15.297Z,11.37
2022-11-20T15:08:58.870Z,11.97
2022-11-20T15:11:34.265Z,11.10
2022-11-20T15:14:12.085Z,12.20
2022-11-20T15:16:41.937Z,11.33
2022-11-20T15:19:19.315Z,10.00
2022-11-20T15:21:48.537Z,11.67
2022-11-20T15:24:16.974Z,11.33
2022-11-20T15:26:45.315Z,11.23
2022-11-20T15:29:19.996Z,10.43
2022-11-20T15:31:53.378Z,10.70
2022-11-20T15:34:30.761Z,10.87
2022-11-20T15:37:00.946Z,11.17
2022-11-20T15:39:29.335Z,11.27
2022-11-20T15:41:57.225Z,10.77
2022-11-20T15:44:25.228Z,12.57
2022-11-20T15:46:53.730Z,11.77
2022-11-20T15:49:24.011Z,12.10
2022-11-20T15:51:53.793Z,11.30
2022-11-20T15:54:24.067Z,11.63
2022-11-20T15:56:58.052Z,11.97
2022-11-20T15:59:25.484Z,11.00
2022-11-20T16:01:56.403Z,10.53
2022-11-20T16:04:24.250Z,11.57
2022-11-20T16:06:52.043Z,11.83
2022-11-20T16:09:19.011Z,11.50
2022-11-20T16:11:46.715Z,12.73
2022-11-20T16:14:33.574Z,11.73
2022-11-20T16:17:01.269Z,11.07
2022-11-20T16:19:28.652Z,12.07
2022-11-20T16:22:02.287Z,11.77
2022-11-20T16:24:33.263Z,12.63
2022-11-20T16:27:20.043Z,12.03
2022-11-20T16:29:47.638Z,11.10
2022-11-20T16:32:14.995Z,12.27
2022-11-20T16:34:41.932Z,11.07
2022-11-20T16:37:08.939Z,12.63
2022-11-20T16:39:35.934Z,11.97
2022-11-20T16:42:06.317Z,11.67
2022-11-20T16:44:33.198Z,12.43
2022-11-20T16:47:00.179Z,11.90
2022-11-20T16:49:27.127Z,12.07
2022-11-20T16:51:54.005Z,11.37
2022-11-20T16:54:21.601Z,11.83
2022-11-20T16:56:48.956Z,11.40
2022-11-20T16:59:16.072Z,12.03
2022-11-20T17:01:44.182Z,12.43
2022-11-20T17:04:11.315Z,13.47
2022-11-20T17:06:41.616Z,11.63
2022-11-20T17:09:11.400Z,12.47
2022-11-20T17:11:38.490Z,11.27
2022-11-20T17:14:09.381Z,11.43
2022-11-20T17:16:37.125Z,12.00
2022-11-20T17:19:05.591Z,12.00
2022-11-20T17:21:35.995Z,12.30
2022-11-20T17:24:05.550Z,12.00
2022-11-20T17:26:33.215Z,12.00
2022-11-20T17:29:03.336Z,11.77
2022-11-20T17:31:32.585Z,12.13
2022-11-20T17:34:00.496Z,11.57
2022-11-20T17:36:28.540Z,11.60
2022-11-20T17:38:55.444Z,11.73
2022-11-20T17:41:25.368Z,11.97
2022-11-20T17:43:57.128Z,11.23
2022-11-20T17:46:30.016Z,11.20
2022-11-20T17:48:57.048Z,12.23
2022-11-20T17:51:26.803Z,11.10
2022-11-20T17:53:58.596Z,13.07
2022-11-20T17:56:44.325Z,11.60
2022-11-20T17:59:13.007Z,12.57
2022-11-20T18:01:43.227Z,12.30
2022-11-20T18:04:11.462Z,12.87
2022-11-20T18:06:39.055Z,13.07
2022-11-20T18:09:07.191Z,13.20
2022-11-20T18:11:39.335Z,11.80
2022-11-20T18:14:44.617Z,12.23
2022-11-20T18:17:13.619Z,12.97
2022-11-20T18:19:55.567Z,11.67
2022-11-20T18:22:31.151Z,13.67
2022-11-20T18:24:58.637Z,12.70
2022-11-20T18:27:25.675Z,12.27
2022-11-20T18:29:52.901Z,13.10
2022-11-20T18:32:23.715Z,13.00
2022-11-20T18:34:51.475Z,13.93
2022-11-20T18:37:19.210Z,13.23
2022-11-20T18:39:46.330Z,13.50
2022-11-20T18:42:34.572Z,13.07
2022-11-20T18:45:04.543Z,14.20
2022-11-20T18:47:38.129Z,14.00
2022-11-20T18:50:07.495Z,13.27
2022-11-20T18:52:39.503Z,13.13
2022-11-20T18:55:07.565Z,14.10
2022-11-20T18:57:34.976Z,13.63
2022-11-20T19:00:08.304Z,13.83
2022-11-20T19:02:41.154Z,13.20
2022-11-20T19:05:14.156Z,12.77
2022-11-20T19:07:41.339Z,12.53
2022-11-20T19:10:08.925Z,12.90
2022-11-20T19:12:35.892Z,13.00
2022-11-20T19:15:03.251Z,15.00
2022-11-20T19:17:33.417Z,13.30
2022-11-20T19:20:00.601Z,13.57
2022-11-20T19:22:28.082Z,13.40
2022-11-20T19:24:55.239Z,13.27
2022-11-20T19:27:22.645Z,12.20
2022-11-20T19:29:49.965Z,11.93
2022-11-20T19:32:16.931Z,12.50
2022-11-20T19:34:44.038Z,11.20
2022-11-20T19:37:11.045Z,11.57
2022-11-20T19:39:38.202Z,11.47
2022-11-20T19:42:05.549Z,11.30
2022-11-20T19:44:33.170Z,11.73
2022-11-20T19:47:00.829Z,11.47
2022-11-20T19:49:28.124Z,10.70
2022-11-20T19:51:55.078Z,11.13
2022-11-20T19:54:22.211Z,10.57
2022-11-20T19:56:50.694Z,9.83
2022-11-20T19:59:18.008Z,10.20
2022-11-20T20:01:45.383Z,10.10
2022-11-20T20:04:12.315Z,10.13
2022-11-20T20:06:40.341Z,9.60
2022-11-20T20:09:09.539Z,10.60
2022-11-20T20:11:37.895Z,9.90
2022-11-20T20:14:06.823Z,11.67
2022-11-20T20:16:35.321Z,10.33
2022-11-20T20:19:04.541Z,10.47
2022-11-20T20:21:35.220Z,11.00
2022-11-20T20:24:02.557Z,11.23
2022-11-20T20:26:31.944Z,11.70
2022-11-20T20:28:59.675Z,11.70
2022-11-20T20:31:28.448Z,12.53
2022-11-20T20:33:56.267Z,11.00
2022-11-20T20:36:24.477Z,12.40
2022-11-20T20:38:56.123Z,11.50
2022-11-20T20:41:24.874Z,12.03
2022-11-20T20:44:11.228Z,12.40
2022-11-20T20:46:39.340Z,12.35
2022-11-20T20:49:07.500Z,13.17
2022-11-20T20:51:34.591Z,12.63
2022-11-20T20:54:01.678Z,12.47
2022-11-20T20:56:28.955Z,12.90
2022-11-20T20:58:55.832Z,12.20
2022-11-20T21:01:23.222Z,13.43
2022-11-20T21:03:50.245Z,12.07
2022-11-20T21:06:17.306Z,13.27
2022-11-20T21:08:44.806Z,13.13
2022-11-20T21:11:15.012Z,13.43
2022-11-20T21:13:43.399Z,13.83
2022-11-20T21:16:11.456Z,13.47
2022-11-20T21:18:38.890Z,13.53
2022-11-20T21:21:26.388Z,14.50
2022-11-20T21:26:21.588Z,12.53
2022-11-20T21:28:50.136Z,14.10
2022-11-20T21:31:22.011Z,14.13
2022-11-20T21:33:50.340Z,12.43
2022-11-20T21:36:20.139Z,13.37
2022-11-20T21:38:48.406Z,12.70
2022-11-20T21:41:15.951Z,14.27
2022-11-20T21:43:43.081Z,13.27
2022-11-20T21:46:12.115Z,12.53
2022-11-20T21:48:40.736Z,13.23
2022-11-20T21:51:19.213Z,13.13
2022-11-20T21:53:47.421Z,13.73
2022-11-20T21:56:20.129Z,14.33
2022-11-20T21:58:48.692Z,13.10
2022-11-20T22:01:20.884Z,12.53
2022-11-20T22:03:53.631Z,13.03
2022-11-20T22:06:21.485Z,12.97
2022-11-20T22:08:49.061Z,13.63
2022-11-20T22:11:18.945Z,13.23
2022-11-20T22:14:05.534Z,14.73
2022-11-20T22:16:36.536Z,13.40
2022-11-20T22:19:04.887Z,14.03
2022-11-20T22:21:32.188Z,13.23
2022-11-20T22:24:00.100Z,12.90
2022-11-20T22:26:29.227Z,12.27
2022-11-20T22:28:58.420Z,12.60
2022-11-20T22:31:27.651Z,12.57
2022-11-20T22:33:54.744Z,12.73
2022-11-20T22:36:24.016Z,12.53
2022-11-20T22:38:51.532Z,12.07
2022-11-20T22:41:21.200Z,11.30
2022-11-20T22:43:48.685Z,13.63
2022-11-20T22:46:17.717Z,12.53
2022-11-20T22:48:53.032Z,11.80
2022-11-20T22:51:22.909Z,11.70
2022-11-20T22:53:50.175Z,12.33
2022-11-20T22:56:17.861Z,11.57
2022-11-20T22:58:46.774Z,12.20
2022-11-20T23:01:14.824Z,11.80
2022-11-20T23:03:45.448Z,12.40
2022-11-20T23:06:12.985Z,11.70
2022-11-20T23:08:41.726Z,12.47
2022-11-20T23:11:16.156Z,12.00
2022-11-20T23:13:44.848Z,11.73
2022-11-20T23:16:16.947Z,12.47
2022-11-20T23:18:45.041Z,11.67
2022-11-20T23:21:18.228Z,12.93
2022-11-20T23:23:50.524Z,12.00
2022-11-20T23:26:19.909Z,13.50
2022-11-20T23:28:47.149Z,13.57
2022-11-20T23:31:15.774Z,13.20
2022-11-20T23:33:45.605Z,12.73
2022-11-20T23:36:13.832Z,14.80
2022-11-20T23:38:41.448Z,14.20
2022-11-20T23:41:08.887Z,13.53
2022-11-20T23:43:35.857Z,14.77
2022-11-20T23:46:03.743Z,14.17
2022-11-20T23:48:35.098Z,13.30
2022-11-20T23:51:02.537Z,14.47
2022-11-20T23:53:29.758Z,13.00
2022-11-20T23:55:59.690Z,14.47
2022-11-20T23:58:32.756Z,13.20
